Slotergracht — PDBP — position and weather

sailwx.info

Track history (hours):
 
Tides and Currents Weather Stations Pressure Air Temp Water Temp Dewpoint Dewpoint Depression Visibility Wind Speed Wind Dir Waves Ship Positions

Slotergracht

Last reported at 2018-Dec-11 13:32 UTC. Time now 2018-Dec-11 15:26 UTC.
Position N 50°18' W 000°11'.

Length 168 m; beam 25 m.

Type: Cargo ship. MMSI: 246456000.

Date/timePositionNaut miles runAvg speedWind from/ knotsBaromVisibWave heightAir tempDewpointWater temp
2018-Dec-11 13:32N 50°18' W 000°11'1215.9
2018-Dec-11 12:47N 50°15' W 000°29'616.5
2018-Dec-11 12:24N 50°13' W 000°39'717.0
2018-Dec-11 12:00N 50°12' W 000°49'1717.8
2018-Dec-11 11:01N 50°07' W 001°16'018.8
2018-Dec-11 11:00N 50°07' W 001°16'918.3
2018-Dec-11 10:30N 50°05' W 001°30'918.5
2018-Dec-11 10:00N 50°02' W 001°44'918.5
2018-Dec-11 09:30N 50°00' W 001°58'918.2
2018-Dec-11 09:01N 49°58' W 002°11'1617.0
2018-Dec-11 08:04N 49°53' W 002°35'116.5
2018-Dec-11 08:00N 49°53' W 002°36'816.6
2018-Dec-11 07:30N 49°50' W 002°49'1315.9
2018-Dec-11 06:43N 49°44' W 003°05'316.0
2018-Dec-11 06:30N 49°42' W 003°09'815.8
2018-Dec-11 06:00N 49°37' W 003°20'815.6
2018-Dec-11 05:30N 49°33' W 003°30'1915.4
2018-Dec-11 04:16N 49°23' W 003°55'815.0
2018-Dec-11 03:44N 49°20' W 004°06'714.9
2018-Dec-11 03:15N 49°17' W 004°16'914.7
2018-Dec-11 02:36N 49°12' W 004°29'214.6
2018-Dec-11 02:30N 49°12' W 004°31'2414.2
2018-Dec-11 00:50N 48°60' W 005°02'713.8
2018-Dec-11 00:20N 48°56' W 005°11'913.7
2018-Dec-10 23:41N 48°52' W 005°23'413.7
2018-Dec-10 23:24N 48°50' W 005°29'513.6
2018-Dec-10 23:00N 48°47' W 005°35'  
2018-Dec-08 06:09N 38°39' W 021°03'316.3
2018-Dec-08 05:58N 38°38' W 021°07'716.3
2018-Dec-08 05:30N 38°36' W 021°16'816.3
2018-Dec-08 05:00N 38°33' W 021°26'816.1
2018-Dec-08 04:30N 38°31' W 021°35'816.3
2018-Dec-08 04:00N 38°28' W 021°45'815.9
2018-Dec-08 03:31N 38°26' W 021°55'916.0
2018-Dec-08 02:57N 38°23' W 022°06'716.0
2018-Dec-08 02:30N 38°21' W 022°15'815.8
2018-Dec-08 02:01N 38°19' W 022°24'816.1
2018-Dec-08 01:30N 38°17' W 022°34'815.8
2018-Dec-08 01:00N 38°15' W 022°44'915.6
2018-Dec-08 00:25N 38°12' W 022°55'615.8
2018-Dec-08 00:00N 38°11' W 023°03'915.8
2018-Dec-07 23:27N 38°08' W 023°14'716.0
2018-Dec-07 23:00N 38°06' W 023°22'815.8
2018-Dec-07 22:30N 38°04' W 023°32'815.7
2018-Dec-07 22:00N 38°02' W 023°42'815.8
2018-Dec-07 21:30N 37°59' W 023°51'815.8
2018-Dec-07 21:00N 37°57' W 024°01'815.5
2018-Dec-07 20:30N 37°55' W 024°10'815.5
2018-Dec-07 20:00N 37°53' W 024°20'816.0
2018-Dec-07 19:30N 37°51' W 024°29'815.7
2018-Dec-07 19:00N 37°49' W 024°39'815.7
2018-Dec-07 18:30N 37°46' W 024°48'815.8
2018-Dec-07 18:00N 37°44' W 024°58'815.3
2018-Dec-07 17:30N 37°42' W 025°07'715.0
2018-Dec-07 17:00N 37°40' W 025°17'714.9
2018-Dec-07 16:30N 37°39' W 025°26'715.0
2018-Dec-07 16:00N 37°39' W 025°35'714.8
2018-Dec-07 15:30N 37°38' W 025°45'714.5
2018-Dec-07 15:00N 37°37' W 025°54'714.8
2018-Dec-07 14:30N 37°36' W 026°03'815.2
2018-Dec-07 14:00N 37°35' W 026°13'815.1
2018-Dec-07 13:30N 37°35' W 026°22'815.3
2018-Dec-07 13:00N 37°33' W 026°32'815.2
2018-Dec-07 12:30N 37°32' W 026°41'815.1
2018-Dec-07 12:00N 37°31' W 026°50'714.8
2018-Dec-07 11:30N 37°30' W 026°60'815.0
2018-Dec-07 11:00N 37°29' W 027°09'815.0
2018-Dec-07 10:30N 37°28' W 027°18'714.8
2018-Dec-07 10:00N 37°27' W 027°28'714.7
2018-Dec-07 09:30N 37°27' W 027°37'715.0
2018-Dec-07 09:00N 37°26' W 027°46'815.1
2018-Dec-07 08:30N 37°25' W 027°56'715.0
2018-Dec-07 08:01N 37°24' W 028°05'815.3
2018-Dec-07 07:31N 37°23' W 028°15'815.3
2018-Dec-07 07:00N 37°22' W 028°24'815.1
2018-Dec-07 06:30N 37°21' W 028°34'714.8
2018-Dec-07 06:00N 37°19' W 028°43'815.1
2018-Dec-07 05:30N 37°19' W 028°52'815.1
2018-Dec-07 05:00N 37°18' W 029°02'815.2
2018-Dec-07 04:30N 37°17' W 029°11'815.0
2018-Dec-07 04:00N 37°16' W 029°21'815.1
2018-Dec-07 03:31N 37°15' W 029°30'1815.3
2018-Dec-07 02:19N 37°13' W 029°53'515.3
2018-Dec-07 01:59N 37°12' W 029°59'1715.5
2018-Dec-07 00:54N 37°09' W 030°20'715.4
2018-Dec-07 00:25N 37°08' W 030°29'1515.4
2018-Dec-06 23:28N 37°06' W 030°47'  
Track history (hours):
 
Tides and Currents Weather Stations Pressure Air Temp Water Temp Dewpoint Dewpoint Depression Visibility Wind Speed Wind Dir Waves Ship Positions

Slotergracht

Last reported at 2018-Dec-11 13:32 UTC. Time now 2018-Dec-11 15:26 UTC.
Position N 50°18' W 000°11'.

Length 168 m; beam 25 m.

Type: Cargo ship. MMSI: 246456000.

Date/timePositionNaut miles runAvg speedWind from/ knotsBaromVisibWave heightAir tempDewpointWater temp
2018-Dec-11 13:32N 50°18' W 000°11'1215.9
2018-Dec-11 12:47N 50°15' W 000°29'616.5
2018-Dec-11 12:24N 50°13' W 000°39'717.0
2018-Dec-11 12:00N 50°12' W 000°49'1717.8
2018-Dec-11 11:01N 50°07' W 001°16'018.8
2018-Dec-11 11:00N 50°07' W 001°16'918.3
2018-Dec-11 10:30N 50°05' W 001°30'918.5
2018-Dec-11 10:00N 50°02' W 001°44'918.5
2018-Dec-11 09:30N 50°00' W 001°58'918.2
2018-Dec-11 09:01N 49°58' W 002°11'1617.0
2018-Dec-11 08:04N 49°53' W 002°35'116.5
2018-Dec-11 08:00N 49°53' W 002°36'816.6
2018-Dec-11 07:30N 49°50' W 002°49'1315.9
2018-Dec-11 06:43N 49°44' W 003°05'316.0
2018-Dec-11 06:30N 49°42' W 003°09'815.8
2018-Dec-11 06:00N 49°37' W 003°20'815.6
2018-Dec-11 05:30N 49°33' W 003°30'1915.4
2018-Dec-11 04:16N 49°23' W 003°55'815.0
2018-Dec-11 03:44N 49°20' W 004°06'714.9
2018-Dec-11 03:15N 49°17' W 004°16'914.7
2018-Dec-11 02:36N 49°12' W 004°29'214.6
2018-Dec-11 02:30N 49°12' W 004°31'2414.2
2018-Dec-11 00:50N 48°60' W 005°02'713.8
2018-Dec-11 00:20N 48°56' W 005°11'913.7
2018-Dec-10 23:41N 48°52' W 005°23'413.7
2018-Dec-10 23:24N 48°50' W 005°29'513.6
2018-Dec-10 23:00N 48°47' W 005°35'  
2018-Dec-08 06:09N 38°39' W 021°03'316.3
2018-Dec-08 05:58N 38°38' W 021°07'716.3
2018-Dec-08 05:30N 38°36' W 021°16'816.3
2018-Dec-08 05:00N 38°33' W 021°26'816.1
2018-Dec-08 04:30N 38°31' W 021°35'816.3
2018-Dec-08 04:00N 38°28' W 021°45'815.9
2018-Dec-08 03:31N 38°26' W 021°55'916.0
2018-Dec-08 02:57N 38°23' W 022°06'716.0
2018-Dec-08 02:30N 38°21' W 022°15'815.8
2018-Dec-08 02:01N 38°19' W 022°24'816.1
2018-Dec-08 01:30N 38°17' W 022°34'815.8
2018-Dec-08 01:00N 38°15' W 022°44'915.6
2018-Dec-08 00:25N 38°12' W 022°55'615.8
2018-Dec-08 00:00N 38°11' W 023°03'915.8
2018-Dec-07 23:27N 38°08' W 023°14'716.0
2018-Dec-07 23:00N 38°06' W 023°22'815.8
2018-Dec-07 22:30N 38°04' W 023°32'815.7
2018-Dec-07 22:00N 38°02' W 023°42'815.8
2018-Dec-07 21:30N 37°59' W 023°51'815.8
2018-Dec-07 21:00N 37°57' W 024°01'815.5
2018-Dec-07 20:30N 37°55' W 024°10'815.5
2018-Dec-07 20:00N 37°53' W 024°20'816.0
2018-Dec-07 19:30N 37°51' W 024°29'815.7
2018-Dec-07 19:00N 37°49' W 024°39'815.7
2018-Dec-07 18:30N 37°46' W 024°48'815.8
2018-Dec-07 18:00N 37°44' W 024°58'815.3
2018-Dec-07 17:30N 37°42' W 025°07'715.0
2018-Dec-07 17:00N 37°40' W 025°17'714.9
2018-Dec-07 16:30N 37°39' W 025°26'715.0
2018-Dec-07 16:00N 37°39' W 025°35'714.8
2018-Dec-07 15:30N 37°38' W 025°45'714.5
2018-Dec-07 15:00N 37°37' W 025°54'714.8
2018-Dec-07 14:30N 37°36' W 026°03'815.2
2018-Dec-07 14:00N 37°35' W 026°13'815.1
2018-Dec-07 13:30N 37°35' W 026°22'815.3
2018-Dec-07 13:00N 37°33' W 026°32'815.2
2018-Dec-07 12:30N 37°32' W 026°41'815.1
2018-Dec-07 12:00N 37°31' W 026°50'714.8
2018-Dec-07 11:30N 37°30' W 026°60'815.0
2018-Dec-07 11:00N 37°29' W 027°09'815.0
2018-Dec-07 10:30N 37°28' W 027°18'714.8
2018-Dec-07 10:00N 37°27' W 027°28'714.7
2018-Dec-07 09:30N 37°27' W 027°37'715.0
2018-Dec-07 09:00N 37°26' W 027°46'815.1
2018-Dec-07 08:30N 37°25' W 027°56'715.0
2018-Dec-07 08:01N 37°24' W 028°05'815.3
2018-Dec-07 07:31N 37°23' W 028°15'815.3
2018-Dec-07 07:00N 37°22' W 028°24'815.1
2018-Dec-07 06:30N 37°21' W 028°34'714.8
2018-Dec-07 06:00N 37°19' W 028°43'815.1
2018-Dec-07 05:30N 37°19' W 028°52'815.1
2018-Dec-07 05:00N 37°18' W 029°02'815.2
2018-Dec-07 04:30N 37°17' W 029°11'815.0
2018-Dec-07 04:00N 37°16' W 029°21'815.1
2018-Dec-07 03:31N 37°15' W 029°30'1815.3
2018-Dec-07 02:19N 37°13' W 029°53'515.3
2018-Dec-07 01:59N 37°12' W 029°59'1715.5
2018-Dec-07 00:54N 37°09' W 030°20'715.4
2018-Dec-07 00:25N 37°08' W 030°29'1515.4
2018-Dec-06 23:28N 37°06' W 030°47'  

Dump ship's entire track history